Klamath Falls International, OR

10:32 PM PDT on October 20, 2014 (GMT -0700)
Siskiyou County | Change Station
CLOSE
Current Station
Airport
Location: Montague,
Elevation: 2648 ft
Nearby Weather Stations

Elev 2648 ft 41.78 °N, 122.47 °W | Updated 39 minutes ago

Overcast
Overcast
45 °F
Feels Like 42 °F
N
6
Wind Variable Wind from WNW

Today
High -- | Low -- °F
--% Chance of Precip.
Yesterday
High -- | Low -- °F
Precip. -- in
7:25 AM 6:17 PM
Waning Crescent, 7% visible
Pressure 29.99 in
Visibility 10.0 miles
Clouds Few 4500 ft
Mostly Cloudy 6000 ft
Windchill 42 °F
Dew Point 43 °F
Humidity 93%
Rainfall 0.09 in
Snow Depth 0 in
UV 0 out of 12
Pollen .90 out of 12
Air Quality Not available.
Flu Activity Sporadic
METAR KSIY 210453Z AUTO 29005KT 10SM FEW045 BKN060 07/06 A2997 RMK AO2 SLP155 T00720061

More Conditions Fewer Conditions

Pressure 29.99 in
Visibility 10.0 miles
Clouds Few 4500 ft
Mostly Cloudy 6000 ft
Windchill 42 °F
Dew Point 43 °F
Humidity 93%
Rainfall 0.09 in
Snow Depth 0 in
UV 0 out of 12
Pollen .90 out of 12
Air Quality Not available.
Flu Activity Sporadic
METAR KSIY 210453Z AUTO 29005KT 10SM FEW045 BKN060 07/06 A2997 RMK AO2 SLP155 T00720061

More Conditions Fewer Conditions

10-Day Weather Forecast

Almanac

Astronomy

Oct. 20, 2014 Rise Set
Actual Time 7:25 AM PDT 6:17 PM PDT
Civil Twilight 6:57 AM PDT 6:45 PM PDT
Nautical Twilight 6:24 AM PDT 7:18 PM PDT
Astronomical Twilight 5:52 AM PDT 7:50 PM PDT
Moon 4:15 AM PDT (10/20) 4:45 PM PDT (10/20)
Length of Visible Light 11h 48m
Length of Day
10h 51m
Tomorrow will be 2m 41s shorter.
Waning Crescent, 7% of the Moon is Illuminated
Oct 21
Waning Crescent
Oct 23
New
Oct 30
First Quarter
Nov 6
Full
Nov 14
Last Quarter

Yesterday's Extremes

State Highs State Lows

Community

WunderPhotos

Upload Photos

1,763,612 photos uploaded!

Nearby

Snow Depth

Station Depth Elevation
Strawberry 0 in 5760 ft
Gerber Reservoir 0 in 4850 ft
Billie Creek Divide 0 in 5300 ft
Cold Springs Camp 0 in 6100 ft
Fish Lake 0 in 4665 ft

Earthquake Activity

City Distance Mag. Time & Date
No recent earthquake activity has been reported nearby.
Minimum magnitude displayed is 2.5.

Coastal Water Temperatures

Place Temperature
No Stations Reporting

Nearby Weather Stations